Nathaniel B. Palmer — WBP3210 — position and weather

sailwx.info

Track history (hours):
 
Tides and Currents Weather Stations Pressure Air Temp Water Temp Dewpoint Dewpoint Depression Visibility Wind Speed Wind Dir Waves Ship Positions

Oceanographic research ship Nathaniel B. Palmer (USA)

Contact: Ethan Norris, ethan.norris.contractor@usap.gov

Detailed information on ship capabilities available from University of Delaware's Ocean Information Center and ARCUS's ALIAS (Arctic Logistics Information and Support) project.

Owner: OFFSHORE SERVICE VESSELS, Cut Off, LA. More information available from US FCC via Universal Licensing System and Coast Guard Vessel Documentation Center.

Last reported at 2020-Aug-05 04:00 UTC. Time now 2020-Aug-05 05:01 UTC.
Position N 40°42' W 124°06'.

Type: Other ship. MMSI: 366610000.

Wind from 360 at 3 knots

Barometer 1017.9 mb
Air temperature 14.4 ° C
Water temperature -0.0 ° C

Date/timePositionNaut miles runAvg speedWind from/ knotsBaromVisibWave heightAir tempDewpointWater temp
2020-Aug-05 04:00N 40°42' W 124°06'0 0.0 360 / 31017.9 14.4 -0.0
2020-Aug-05 03:00N 40°42' W 124°06'0 0.0 350 / 41017.9 14.5 -0.0
2020-Aug-05 02:00N 40°42' W 124°06'0 0.0 350 / 61018.1 14.8 -0.0
2020-Aug-05 01:00N 40°42' W 124°06'0 0.0 330 / 51018.4 14.8 -0.0
2020-Aug-05 00:00N 40°42' W 124°06'0 0.0 330 / 81018.4 15.0 -0.0
2020-Aug-04 23:00N 40°42' W 124°06'0 0.0 320 / 61018.4 15.1 -0.0
2020-Aug-04 22:00N 40°42' W 124°06'0 0.0 330 / 91018.5 15.4 -0.0
2020-Aug-04 21:00N 40°42' W 124°06'0 0.0 340 / 81018.5 15.3 -0.0
2020-Aug-04 20:00N 40°42' W 124°06'0 0.0 320 / 61018.6 15.1 -0.0
2020-Aug-04 19:00N 40°42' W 124°06'0 0.0 300 / 21018.4 15.3 -0.0
2020-Aug-04 18:00N 40°42' W 124°06'0 0.0 280 / 21018.4 14.5 -0.0
2020-Aug-04 17:00N 40°42' W 124°06'0 0.0 240 / 21018.3 13.6 -0.0
2020-Aug-04 16:00N 40°42' W 124°06'0 0.0 280 / 41018.3 13.7 -0.0
2020-Aug-04 15:00N 40°42' W 124°06'0 0.0 260 / 31018.4 14.2 -0.0
2020-Aug-04 14:00N 40°42' W 124°06'0 0.0 310 / 51018.5 14.2 -0.0
2020-Aug-04 13:00N 40°42' W 124°06'0 0.0 320 / 61018.4 14.2 -0.0
2020-Aug-04 12:00N 40°42' W 124°06'0 0.0 310 / 61018.4 14.4 -0.0
2020-Aug-04 11:00N 40°42' W 124°06'0 0.0 310 / 41018.5 14.3 -0.0
2020-Aug-04 10:00N 40°42' W 124°06'0 0.0 340 / 51018.6 14.7 -0.0
2020-Aug-04 09:00N 40°42' W 124°06'0 0.0 340 / 51019.0 14.7 -0.0
2020-Aug-04 08:00N 40°42' W 124°06'0 0.0 1019.4 15.4 -0.0
2020-Aug-04 07:00N 40°42' W 124°06'0 0.0 360 / 101019.8 15.5 -0.0
2020-Aug-04 06:00N 40°42' W 124°06'0 0.0 1020.4 14.8 -0.0
2020-Aug-04 05:00N 40°42' W 124°06'0 0.0 010 / 91020.3 15.3 -0.0
2020-Aug-04 04:00N 40°42' W 124°06'0 0.0 340 / 121020.3 15.1 -0.0
2020-Aug-04 03:00N 40°42' W 124°06'0 0.0 340 / 101020.6 15.7 -0.0
2020-Aug-04 02:00N 40°42' W 124°06'0 0.0 330 / 91020.9 16.0 -0.0
2020-Aug-04 01:00N 40°42' W 124°06'0 0.0 330 / 81021.2 16.0 -0.0
2020-Aug-04 00:00N 40°42' W 124°06'0 0.0 310 / 91021.2 16.1 -0.0
2020-Aug-03 23:00N 40°42' W 124°06'0 0.0 320 / 101021.2 16.6 -0.0
2020-Aug-03 22:00N 40°42' W 124°06'0 0.0 340 / 111021.2 16.9 -0.0
2020-Aug-03 21:00N 40°42' W 124°06'0 0.0 350 / 101021.4 17.3 -0.0
2020-Aug-03 20:00N 40°42' W 124°06'0 0.0 350 / 91021.4 16.8 -0.0
2020-Aug-03 19:00N 40°42' W 124°06'0 0.0 360 / 81021.6 15.9 -0.0
2020-Aug-03 18:00N 40°42' W 124°06'0 0.0 360 / 71021.5 15.6 -0.0
2020-Aug-03 17:00N 40°42' W 124°06'0 0.0 010 / 71021.5 15.8 -0.0
2020-Aug-03 16:00N 40°42' W 124°06'0 0.0 010 / 61021.6 15.8 -0.0
2020-Aug-03 15:00N 40°42' W 124°06'0 0.0 1021.4 15.7 -0.0
2020-Aug-03 14:00N 40°42' W 124°06'0 0.0 030 / 51021.3 16.2 -0.0
2020-Aug-03 13:00N 40°42' W 124°06'0 0.0 030 / 61021.3 16.0 -0.0
2020-Aug-03 12:00N 40°42' W 124°06'0 0.0 040 / 71021.2 16.2 -0.0
2020-Aug-03 11:00N 40°42' W 124°06'0 0.0 040 / 71021.0 16.2 -0.0
2020-Aug-03 10:00N 40°42' W 124°06'0 0.0 030 / 51021.0 15.9 -0.0
2020-Aug-03 09:00N 40°42' W 124°06'0 0.0 030 / 61021.2 15.7 -0.0
2020-Aug-03 08:00N 40°42' W 124°06'0 0.0 020 / 71021.4 15.0 -0.0
2020-Aug-03 07:00N 40°42' W 124°06'0 0.0 020 / 51021.5 15.0 -0.0
2020-Aug-03 06:00N 40°42' W 124°06'0 0.0 020 / 41021.7 15.1 -0.0
2020-Aug-03 05:00N 40°42' W 124°06'0 0.0 010 / 31021.6 14.8 -0.0
2020-Aug-03 04:00N 40°42' W 124°06'0 0.0 030 / 31021.1 16.0 -0.0
2020-Aug-03 03:00N 40°42' W 124°06'0 0.0 010 / 41020.9 16.1 -0.0
2020-Aug-03 02:00N 40°42' W 124°06'0 0.0 340 / 41020.9 16.7 -0.0
2020-Aug-03 01:00N 40°42' W 124°06'0 0.0 360 / 61021.1 16.6 -0.0
2020-Aug-03 00:00N 40°42' W 124°06'0 0.0 350 / 61021.4 16.2 -0.0
2020-Aug-02 23:00N 40°42' W 124°06'0 0.0 340 / 71021.5 15.8 -0.0
2020-Aug-02 22:00N 40°42' W 124°06'0 0.0 010 / 71021.4 15.6 -0.0
2020-Aug-02 21:00N 40°42' W 124°06'0 0.0 020 / 91021.4 15.0 -0.0
2020-Aug-02 20:00N 40°42' W 124°06'0 0.0 030 / 61021.3 14.5 -0.0
2020-Aug-02 19:00N 40°42' W 124°06'0 0.0 020 / 61021.1 14.1 -0.0
2020-Aug-02 18:00N 40°42' W 124°06'0 0.0 010 / 71020.8 14.2 -0.0
2020-Aug-02 17:00N 40°42' W 124°06'0 0.0 030 / 71020.9 14.0 -0.0
2020-Aug-02 16:00N 40°42' W 124°06'0 0.0 020 / 61021.1 13.5 -0.0
2020-Aug-02 15:00N 40°42' W 124°06'0 0.0 040 / 81020.8 13.3 -0.0
2020-Aug-02 14:00N 40°42' W 124°06'0 0.0 020 / 41020.7 12.7 -0.0
2020-Aug-02 13:00N 40°42' W 124°06'0 0.0 320 / 41020.0 12.3 -0.0
2020-Aug-02 12:00N 40°42' W 124°06'0 0.0 350 / 31019.5 12.6 -0.0
2020-Aug-02 11:00N 40°42' W 124°06'0 0.0 330 / 51019.4 12.6 -0.0
2020-Aug-02 10:00N 40°42' W 124°06'0 0.0 360 / 61019.3 12.8 -0.0
2020-Aug-02 09:00N 40°42' W 124°06'0 0.0 350 / 81019.8 13.1 -0.0
2020-Aug-02 08:00N 40°42' W 124°06'0 0.0 360 / 71020.1 13.2 -0.0
2020-Aug-02 07:00N 40°42' W 124°06'0 0.0 010 / 91020.4 13.2 -0.0
2020-Aug-02 06:00N 40°42' W 124°06'0 0.0 010 / 61020.5 13.0 -0.0
2020-Aug-02 05:00N 40°42' W 124°06'0 0.0 020 / 51020.4 13.2 -0.0
2020-Aug-02 04:00N 40°42' W 124°06'0 0.0 1020.1 13.3 -0.0
2020-Aug-02 03:00N 40°42' W 124°06'0 0.0 010 / 51020.2 13.5 -0.0
2020-Aug-02 02:00N 40°42' W 124°06'0 0.0 010 / 61020.1 13.7 -0.0
2020-Aug-02 01:00N 40°42' W 124°06'0 0.0 350 / 61020.2 14.3 -0.0
2020-Aug-02 00:00N 40°42' W 124°06'0 0.0 350 / 71020.2 14.7 -0.0
2020-Aug-01 23:00N 40°42' W 124°06'0 0.0 1020.5 14.6 -0.0
2020-Aug-01 22:00N 40°42' W 124°06'0 0.0 010 / 71020.9 14.4 -0.0
2020-Aug-01 21:00N 40°42' W 124°06'0 0.0 340 / 71021.1 14.6 -0.0
2020-Aug-01 20:00N 40°42' W 124°06'0 0.0 350 / 71020.9 15.2 -0.0
2020-Aug-01 19:00N 40°42' W 124°06'0 0.0 020 / 81020.8 14.8 -0.0
2020-Aug-01 18:00N 40°42' W 124°06'0 0.0 030 / 71020.8 14.3 -0.0
2020-Aug-01 17:00N 40°42' W 124°06'0 0.0 030 / 61020.9 13.3 -0.0
2020-Aug-01 16:00N 40°42' W 124°06'0 0.0 030 / 61020.6 13.1 -0.0
2020-Aug-01 15:00N 40°42' W 124°06'0 0.0 020 / 61020.5 12.7 -0.0
2020-Aug-01 14:00N 40°42' W 124°06'0 0.0 340 / 51020.0 12.5 -0.0
2020-Aug-01 13:00N 40°42' W 124°06'0 0.0 310 / 11019.5 12.5 -0.0
2020-Aug-01 12:00N 40°42' W 124°06'0 0.0 350 / 31019.4 12.2 -0.0
2020-Aug-01 11:00N 40°42' W 124°06'0 0.0 350 / 41019.5 12.0 -0.0
2020-Aug-01 10:00N 40°42' W 124°06'0 0.0 010 / 11019.5 12.3 -0.0
2020-Aug-01 09:00N 40°42' W 124°06'0 0.0 220 / 11019.6 12.1 -0.0
2020-Aug-01 08:00N 40°42' W 124°06'0 0.0 320 / 11019.8 12.3 -0.0
2020-Aug-01 07:00N 40°42' W 124°06'0 0.0 020 / 31020.0 12.5 -0.0
2020-Aug-01 06:00N 40°42' W 124°06'0 0.0 010 / 41020.4 12.2 -0.0
2020-Aug-01 05:00N 40°42' W 124°06'0 0.0 020 / 41020.1 12.3 -0.0
2020-Aug-01 04:00N 40°42' W 124°06'0 0.0 020 / 51019.8 12.3 -0.0
2020-Aug-01 03:00N 40°42' W 124°06'0 0.0 020 / 61019.6 12.8 -0.0
2020-Aug-01 02:00N 40°42' W 124°06'0 0.0 020 / 71019.6 13.2 -0.0
2020-Aug-01 01:00N 40°42' W 124°06'0 0.0 360 / 71019.9 13.7 -0.0
2020-Aug-01 00:00N 40°42' W 124°06'0 0.0 010 / 71020.3 13.9 -0.0
2020-Jul-31 23:00N 40°42' W 124°06'0 0.0 350 / 81020.8 14.1 -0.0
2020-Jul-31 22:00N 40°42' W 124°06'0 0.0 340 / 81020.6 14.3 -0.0
2020-Jul-31 21:00N 40°42' W 124°06'0 0.0 340 / 71020.2 14.3 -0.0
2020-Jul-31 20:00N 40°42' W 124°06'0 0.0 030 / 41019.8 14.3 -0.0
2020-Jul-31 19:00N 40°42' W 124°06'0 0.0 340 / 61019.9 13.0 -0.0
2020-Jul-31 18:00N 40°42' W 124°06'0 0.0 360 / 51019.7 12.8 -0.0
2020-Jul-31 17:00N 40°42' W 124°06'0 0.0 360 / 61019.2 12.3 -0.0
2020-Jul-31 16:00N 40°42' W 124°06'0 0.0 060 / 21019.0 12.2 -0.0
2020-Jul-31 15:00N 40°42' W 124°06'0 0.0 340 / 31018.6 11.4 -0.0
2020-Jul-31 14:00N 40°42' W 124°06'0 0.0 340 / 31018.3 11.0 -0.0
2020-Jul-31 13:00N 40°42' W 124°06'0 0.0 300 / 21017.9 10.9 -0.0
2020-Jul-31 12:00N 40°42' W 124°06'0 0.0 250 / 31017.3 11.0 -0.0
2020-Jul-31 11:00N 40°42' W 124°06'0 0.0 260 / 61016.6 11.1 -0.0
2020-Jul-31 10:00N 40°42' W 124°06'0 0.0 260 / 41016.5 11.4 -0.0
2020-Jul-31 09:00N 40°42' W 124°06'0 0.0 290 / 31016.6 11.6 -0.0
2020-Jul-31 08:00N 40°42' W 124°06'0 0.0 260 / 21016.9 11.9 -0.0
2020-Jul-31 07:00N 40°42' W 124°06'0 0.0 290 / 21017.0 11.9 -0.0
2020-Jul-31 06:00N 40°42' W 124°06'0 0.0 280 / 41017.4 11.8 -0.0
2020-Jul-31 05:00N 40°42' W 124°06'0 0.0 300 / 51017.4 12.1 -0.0
2020-Jul-31 04:00N 40°42' W 124°06'0 0.0 320 / 51017.3 12.5 -0.0
2020-Jul-31 03:00N 40°42' W 124°06'0 0.0 330 / 41017.5 13.6 -0.0
2020-Jul-31 02:00N 40°42' W 124°06'0 0.0 340 / 41017.7 14.5 -0.0
2020-Jul-31 01:00N 40°42' W 124°06'0 0.0 340 / 41017.8 14.7 -0.0
2020-Jul-31 00:00N 40°42' W 124°06'0 0.0 310 / 41018.0 14.8 -0.0
2020-Jul-30 23:00N 40°42' W 124°06'0 0.0 310 / 51018.0 14.6 -0.0
2020-Jul-30 22:00N 40°42' W 124°06'0 0.0 320 / 51018.0 14.5 -0.0
2020-Jul-30 21:00N 40°42' W 124°06'0 0.0 300 / 51018.1 14.3 -0.0
2020-Jul-30 20:00N 40°42' W 124°06'0 0.0 290 / 31017.8 14.2 -0.0
2020-Jul-30 19:00N 40°42' W 124°06'0 0.0 260 / 51017.5 12.3 -0.0
2020-Jul-30 18:00N 40°42' W 124°06'0 0.0 200 / 61017.1 11.4 -0.0
2020-Jul-30 17:00N 40°42' W 124°06'0 0.0 190 / 51016.9 11.0 -0.0
2020-Jul-30 16:00N 40°42' W 124°06'0 0.0 190 / 21016.6 10.7 -0.0
2020-Jul-30 15:00N 40°42' W 124°06'0 0.0 230 / 21016.0 10.5 -0.0
2020-Jul-30 14:00N 40°42' W 124°06'0 0.0 250 / 41015.5 10.6 -0.0
2020-Jul-30 13:00N 40°42' W 124°06'0 0.0 270 / 31015.4 10.6 -0.0
2020-Jul-30 12:00N 40°42' W 124°06'0 0.0 240 / 41015.4 10.9 -0.0
2020-Jul-30 11:00N 40°42' W 124°06'0 0.0 270 / 31015.3 10.8 -0.0
2020-Jul-30 10:00N 40°42' W 124°06'0 0.0 270 / 31015.0 11.1 -0.0
2020-Jul-30 09:00N 40°42' W 124°06'0 0.0 290 / 21015.0 11.2 -0.0
2020-Jul-30 08:00N 40°42' W 124°06'0 0.0 320 / 21015.2 11.2 -0.0
2020-Jul-30 07:00N 40°42' W 124°06'0 0.0 330 / 41015.4 11.1 -0.0
2020-Jul-30 06:00N 40°42' W 124°06'0 0.0 330 / 41015.5 11.4 -0.0
2020-Jul-30 05:00N 40°42' W 124°06'0 0.0 350 / 31015.6 11.6 -0.0
2020-Jul-30 04:00N 40°42' W 124°06'0 0.0 330 / 31015.2 11.8 -0.0
2020-Jul-30 03:00N 40°42' W 124°06'0 0.0 330 / 31014.8 12.1 -0.0
2020-Jul-30 02:00N 40°42' W 124°06'0 0.0 320 / 31014.7 12.1 -0.0
2020-Jul-30 01:00N 40°42' W 124°06'0 0.0 300 / 41014.8 12.4 -0.0
2020-Jul-30 00:00N 40°42' W 124°06'0 0.0 290 / 41014.9 12.8 -0.0
2020-Jul-29 23:00N 40°42' W 124°06'0 0.0 290 / 51015.1 13.2 -0.0
2020-Jul-29 22:00N 40°42' W 124°06'0 0.0 280 / 51015.2 12.7 -0.0
2020-Jul-29 21:00N 40°42' W 124°06'0 0.0 260 / 61015.1 12.9 -0.0
2020-Jul-29 20:00N 40°42' W 124°06'0 0.0 270 / 51015.0 12.7 -0.0
2020-Jul-29 19:00N 40°42' W 124°06'0 0.0 260 / 51014.6 12.4 -0.0
2020-Jul-29 18:00N 40°42' W 124°06'0 0.0 230 / 51014.2 11.7 -0.0
2020-Jul-29 17:00N 40°42' W 124°06'0 0.0 200 / 51013.6 11.5 -0.0
2020-Jul-29 16:00N 40°42' W 124°06'0 0.0 190 / 41013.3 11.1 -0.0
2020-Jul-29 15:00N 40°42' W 124°06'0 0.0 180 / 51012.8 10.7 -0.0
2020-Jul-29 14:00N 40°42' W 124°06'0 0.0 160 / 31012.3 10.9 -0.0
2020-Jul-29 13:00N 40°42' W 124°06'0 0.0 170 / 31012.2 10.9 -0.0
2020-Jul-29 12:00N 40°42' W 124°06'0 0.0 180 / 31012.3 11.0 -0.0
2020-Jul-29 11:00N 40°42' W 124°06'0 0.0 230 / 21012.5 10.7 -0.0
2020-Jul-29 10:00N 40°42' W 124°06'0 0.0 240 / 31012.7 10.7 -0.0
2020-Jul-29 09:00N 40°42' W 124°06'0 0.0 260 / 41012.9 10.9 -0.0
2020-Jul-29 08:00N 40°42' W 124°06'0 0.0 250 / 31013.1 11.1 -0.0
2020-Jul-29 07:00N 40°42' W 124°06'0 0.0 250 / 21013.3 11.2 -0.0
2020-Jul-29 06:00N 40°42' W 124°06'0 0.0 270 / 21013.5 11.3 -0.0
2020-Jul-29 05:00N 40°42' W 124°06'0 0.0 300 / 31013.3 11.4 -0.0
2020-Jul-29 04:00N 40°42' W 124°06'0 0.0 010 / 21013.0 11.9 -0.0
2020-Jul-29 03:00N 40°42' W 124°06'0 0.0 340 / 31012.9 11.7 -0.0
2020-Jul-29 02:00N 40°42' W 124°06'0 0.0 290 / 31013.0 11.8 -0.0
2020-Jul-29 01:00N 40°42' W 124°06'0 0.0 270 / 61013.1 12.1 -0.0
2020-Jul-29 00:00N 40°42' W 124°06'0 0.0 260 / 71013.3 12.5 -0.0
2020-Jul-28 23:00N 40°42' W 124°06'0 0.0 270 / 51013.7 13.2 -0.0
2020-Jul-28 22:00N 40°42' W 124°06'0 0.0 280 / 61014.0 13.0 -0.0
2020-Jul-28 21:00N 40°42' W 124°06'0 0.0 270 / 61014.3 12.9 -0.0
2020-Jul-28 20:00N 40°42' W 124°06'0 0.0 290 / 51014.7 12.5 -0.0
2020-Jul-28 19:00N 40°42' W 124°06'0 0.0 280 / 51014.6 12.1 -0.0
2020-Jul-28 18:00N 40°42' W 124°06'0 0.0 290 / 51014.3 11.6 -0.0
2020-Jul-28 17:00N 40°42' W 124°06'0 0.0 300 / 11014.2 11.7 -0.0
2020-Jul-28 16:00N 40°42' W 124°06'0 0.0 130 / 11014.2 11.2 -0.0
2020-Jul-28 15:00N 40°42' W 124°06'0 0.0 200 / 21014.2 10.9 -0.0
2020-Jul-28 14:00N 40°42' W 124°06'0 0.0 220 / 31014.2 10.6 -0.0
2020-Jul-28 13:00N 40°42' W 124°06'0 0.0 230 / 41014.1 10.6 -0.0
2020-Jul-28 12:00N 40°42' W 124°06'0 0.0 240 / 31013.7 10.8 -0.0
2020-Jul-28 11:00N 40°42' W 124°06'0 0.0 300 / 31013.7 10.8 -0.0
2020-Jul-28 10:00N 40°42' W 124°06'0 0.0 320 / 31013.7 11.0 -0.0
2020-Jul-28 09:00N 40°42' W 124°06'0 0.0 350 / 21013.9 11.4 -0.0
2020-Jul-28 08:00N 40°42' W 124°06'0 0.0 350 / 31014.1 11.4 -0.0
2020-Jul-28 07:00N 40°42' W 124°06'0 0.0 340 / 21014.2 11.5 -0.0
2020-Jul-28 06:00N 40°42' W 124°06'0 0.0 350 / 21014.6 11.3 -0.0
2020-Jul-28 05:00N 40°42' W 124°06'0 0.0 330 / 11014.5 11.4 -0.0
2020-Jul-28 04:00N 40°42' W 124°06'0 0.0 220 / 11014.3 11.6 -0.0
2020-Jul-28 03:00N 40°42' W 124°06'0 0.0 290 / 21014.3 11.7 -0.0
2020-Jul-28 02:00N 40°42' W 124°06'0 0.0 290 / 31014.2 11.6 -0.0
2020-Jul-28 01:00N 40°42' W 124°06'0 0.0 310 / 41014.4 11.7 -0.0
2020-Jul-28 00:00N 40°42' W 124°06'0 0.0 290 / 41014.5 12.1 -0.0
2020-Jul-27 23:00N 40°42' W 124°06'0 0.0 290 / 51014.6 12.7 -0.0
2020-Jul-27 22:00N 40°42' W 124°06'0 0.0 300 / 41014.8 12.3 -0.0
2020-Jul-27 21:00N 40°42' W 124°06'0 0.0 310 / 51015.1 11.9 -0.0
2020-Jul-27 20:00N 40°42' W 124°06'0 0.0 310 / 41015.2 11.9 -0.0
2020-Jul-27 19:00N 40°42' W 124°06'0 0.0 360 / 41015.2 11.5 -0.0
2020-Jul-27 18:00N 40°42' W 124°06'0 0.0 340 / 31015.2 10.8 -0.0
2020-Jul-27 17:00N 40°42' W 124°06'0 0.0 310 / 41015.0 10.6 -0.0
2020-Jul-27 16:00N 40°42' W 124°06'0 0.0 320 / 21014.9 10.8 -0.0
2020-Jul-27 15:00N 40°42' W 124°06'0 0.0 330 / 11014.7 11.1 -0.0
2020-Jul-27 14:00N 40°42' W 124°06'0 0.0 300 / 11014.7 10.9 -0.0
2020-Jul-27 13:00N 40°42' W 124°06'0 0.0 260 / 21014.4 10.8 -0.0
2020-Jul-27 12:00N 40°42' W 124°06'0 0.0 250 / 21014.2 10.9 -0.0
2020-Jul-27 11:00N 40°42' W 124°06'0 0.0 250 / 21014.5 11.0 -0.0
2020-Jul-27 10:00N 40°42' W 124°06'0 0.0 330 / 21014.6 11.0 -0.0
2020-Jul-27 09:00N 40°42' W 124°06'0 0.0 310 / 31014.4 11.2 -0.0
2020-Jul-27 08:00N 40°42' W 124°06'0 0.0 320 / 21014.5 11.3 -0.0
2020-Jul-27 07:00N 40°42' W 124°06'0 0.0 300 / 31014.7 11.3 -0.0
2020-Jul-27 06:00N 40°42' W 124°06'0 0.0 250 / 31014.6 11.6 -0.0
2020-Jul-27 05:00N 40°42' W 124°06'0 0.0 200 / 21014.9 11.7 -0.0
2020-Jul-27 04:00N 40°42' W 124°06'0 0.0 240 / 31014.7 11.8 -0.0
2020-Jul-27 03:00N 40°42' W 124°06'0 0.0 230 / 51014.4 11.9 -0.0
2020-Jul-27 02:00N 40°42' W 124°06'0 0.0 230 / 51014.4 12.1 -0.0
2020-Jul-27 01:00N 40°42' W 124°06'0 0.0 240 / 61014.6 12.1 -0.0
2020-Jul-27 00:00N 40°42' W 124°06'0 0.0 240 / 71014.8 12.8 -0.0
2020-Jul-26 23:00N 40°42' W 124°06'0 0.0 260 / 71015.1 12.4 -0.0
2020-Jul-26 22:00N 40°42' W 124°06'0 0.0 250 / 61015.3 12.3 -0.0
2020-Jul-26 21:00N 40°42' W 124°06'0 0.0 260 / 71015.4 11.7 -0.0
2020-Jul-26 20:00N 40°42' W 124°06'0 0.0 260 / 71015.3 11.4 -0.0
2020-Jul-26 19:00N 40°42' W 124°06'0 0.0 260 / 61015.1 11.7 -0.0
2020-Jul-26 18:00N 40°42' W 124°06'0 0.0 280 / 31014.8 11.7 -0.0
2020-Jul-26 17:00N 40°42' W 124°06'0 0.0 270 / 21014.4 11.7 -0.0
2020-Jul-26 16:00N 40°42' W 124°06'0 0.0 240 / 11014.0 11.2 -0.0
2020-Jul-26 15:00N 40°42' W 124°06'0 0.0 230 / 21013.9 10.9 -0.0
2020-Jul-26 14:00N 40°42' W 124°06'0 0.0 210 / 41013.6 11.0 -0.0
2020-Jul-26 13:00N 40°42' W 124°06'0 0.0 190 / 61013.3 11.1 -0.0
2020-Jul-26 12:00N 40°42' W 124°06'0 0.0 210 / 71013.1 11.3 -0.0
2020-Jul-26 11:00N 40°42' W 124°06'0 0.0 210 / 101013.0 11.5 -0.0
2020-Jul-26 10:00N 40°42' W 124°06'0 0.0 190 / 101012.9 11.7 -0.0
2020-Jul-26 09:00N 40°42' W 124°06'0 0.0 190 / 81013.1 11.5 -0.0
2020-Jul-26 08:00N 40°42' W 124°06'0 0.0 180 / 71013.3 11.7 -0.0
2020-Jul-26 07:00N 40°42' W 124°06'0 0.0 180 / 61013.7 11.9 -0.0
2020-Jul-26 06:00N 40°42' W 124°06'0 0.0 200 / 61013.9 12.1 -0.0
2020-Jul-26 05:00N 40°42' W 124°06'0 0.0 230 / 41013.9 12.1 -0.0
2020-Jul-26 04:00N 40°42' W 124°06'   240 / 31013.9 12.6 -0.0
Track history (hours):
 
Tides and Currents Weather Stations Pressure Air Temp Water Temp Dewpoint Dewpoint Depression Visibility Wind Speed Wind Dir Waves Ship Positions

Oceanographic research ship Nathaniel B. Palmer (USA)

Contact: Ethan Norris, ethan.norris.contractor@usap.gov

Detailed information on ship capabilities available from University of Delaware's Ocean Information Center and ARCUS's ALIAS (Arctic Logistics Information and Support) project.

Owner: OFFSHORE SERVICE VESSELS, Cut Off, LA. More information available from US FCC via Universal Licensing System and Coast Guard Vessel Documentation Center.

Last reported at 2020-Aug-05 04:00 UTC. Time now 2020-Aug-05 05:01 UTC.
Position N 40°42' W 124°06'.

Type: Other ship. MMSI: 366610000.

Wind from 360 at 3 knots

Barometer 1017.9 mb
Air temperature 14.4 ° C
Water temperature -0.0 ° C

Date/timePositionNaut miles runAvg speedWind from/ knotsBaromVisibWave heightAir tempDewpointWater temp
2020-Aug-05 04:00N 40°42' W 124°06'0 0.0 360 / 31017.9 14.4 -0.0
2020-Aug-05 03:00N 40°42' W 124°06'0 0.0 350 / 41017.9 14.5 -0.0
2020-Aug-05 02:00N 40°42' W 124°06'0 0.0 350 / 61018.1 14.8 -0.0
2020-Aug-05 01:00N 40°42' W 124°06'0 0.0 330 / 51018.4 14.8 -0.0
2020-Aug-05 00:00N 40°42' W 124°06'0 0.0 330 / 81018.4 15.0 -0.0
2020-Aug-04 23:00N 40°42' W 124°06'0 0.0 320 / 61018.4 15.1 -0.0
2020-Aug-04 22:00N 40°42' W 124°06'0 0.0 330 / 91018.5 15.4 -0.0
2020-Aug-04 21:00N 40°42' W 124°06'0 0.0 340 / 81018.5 15.3 -0.0
2020-Aug-04 20:00N 40°42' W 124°06'0 0.0 320 / 61018.6 15.1 -0.0
2020-Aug-04 19:00N 40°42' W 124°06'0 0.0 300 / 21018.4 15.3 -0.0
2020-Aug-04 18:00N 40°42' W 124°06'0 0.0 280 / 21018.4 14.5 -0.0
2020-Aug-04 17:00N 40°42' W 124°06'0 0.0 240 / 21018.3 13.6 -0.0
2020-Aug-04 16:00N 40°42' W 124°06'0 0.0 280 / 41018.3 13.7 -0.0
2020-Aug-04 15:00N 40°42' W 124°06'0 0.0 260 / 31018.4 14.2 -0.0
2020-Aug-04 14:00N 40°42' W 124°06'0 0.0 310 / 51018.5 14.2 -0.0
2020-Aug-04 13:00N 40°42' W 124°06'0 0.0 320 / 61018.4 14.2 -0.0
2020-Aug-04 12:00N 40°42' W 124°06'0 0.0 310 / 61018.4 14.4 -0.0
2020-Aug-04 11:00N 40°42' W 124°06'0 0.0 310 / 41018.5 14.3 -0.0
2020-Aug-04 10:00N 40°42' W 124°06'0 0.0 340 / 51018.6 14.7 -0.0
2020-Aug-04 09:00N 40°42' W 124°06'0 0.0 340 / 51019.0 14.7 -0.0
2020-Aug-04 08:00N 40°42' W 124°06'0 0.0 1019.4 15.4 -0.0
2020-Aug-04 07:00N 40°42' W 124°06'0 0.0 360 / 101019.8 15.5 -0.0
2020-Aug-04 06:00N 40°42' W 124°06'0 0.0 1020.4 14.8 -0.0
2020-Aug-04 05:00N 40°42' W 124°06'0 0.0 010 / 91020.3 15.3 -0.0
2020-Aug-04 04:00N 40°42' W 124°06'0 0.0 340 / 121020.3 15.1 -0.0
2020-Aug-04 03:00N 40°42' W 124°06'0 0.0 340 / 101020.6 15.7 -0.0
2020-Aug-04 02:00N 40°42' W 124°06'0 0.0 330 / 91020.9 16.0 -0.0
2020-Aug-04 01:00N 40°42' W 124°06'0 0.0 330 / 81021.2 16.0 -0.0
2020-Aug-04 00:00N 40°42' W 124°06'0 0.0 310 / 91021.2 16.1 -0.0
2020-Aug-03 23:00N 40°42' W 124°06'0 0.0 320 / 101021.2 16.6 -0.0
2020-Aug-03 22:00N 40°42' W 124°06'0 0.0 340 / 111021.2 16.9 -0.0
2020-Aug-03 21:00N 40°42' W 124°06'0 0.0 350 / 101021.4 17.3 -0.0
2020-Aug-03 20:00N 40°42' W 124°06'0 0.0 350 / 91021.4 16.8 -0.0
2020-Aug-03 19:00N 40°42' W 124°06'0 0.0 360 / 81021.6 15.9 -0.0
2020-Aug-03 18:00N 40°42' W 124°06'0 0.0 360 / 71021.5 15.6 -0.0
2020-Aug-03 17:00N 40°42' W 124°06'0 0.0 010 / 71021.5 15.8 -0.0
2020-Aug-03 16:00N 40°42' W 124°06'0 0.0 010 / 61021.6 15.8 -0.0
2020-Aug-03 15:00N 40°42' W 124°06'0 0.0 1021.4 15.7 -0.0
2020-Aug-03 14:00N 40°42' W 124°06'0 0.0 030 / 51021.3 16.2 -0.0
2020-Aug-03 13:00N 40°42' W 124°06'0 0.0 030 / 61021.3 16.0 -0.0
2020-Aug-03 12:00N 40°42' W 124°06'0 0.0 040 / 71021.2 16.2 -0.0
2020-Aug-03 11:00N 40°42' W 124°06'0 0.0 040 / 71021.0 16.2 -0.0
2020-Aug-03 10:00N 40°42' W 124°06'0 0.0 030 / 51021.0 15.9 -0.0
2020-Aug-03 09:00N 40°42' W 124°06'0 0.0 030 / 61021.2 15.7 -0.0
2020-Aug-03 08:00N 40°42' W 124°06'0 0.0 020 / 71021.4 15.0 -0.0
2020-Aug-03 07:00N 40°42' W 124°06'0 0.0 020 / 51021.5 15.0 -0.0
2020-Aug-03 06:00N 40°42' W 124°06'0 0.0 020 / 41021.7 15.1 -0.0
2020-Aug-03 05:00N 40°42' W 124°06'0 0.0 010 / 31021.6 14.8 -0.0
2020-Aug-03 04:00N 40°42' W 124°06'0 0.0 030 / 31021.1 16.0 -0.0
2020-Aug-03 03:00N 40°42' W 124°06'0 0.0 010 / 41020.9 16.1 -0.0
2020-Aug-03 02:00N 40°42' W 124°06'0 0.0 340 / 41020.9 16.7 -0.0
2020-Aug-03 01:00N 40°42' W 124°06'0 0.0 360 / 61021.1 16.6 -0.0
2020-Aug-03 00:00N 40°42' W 124°06'0 0.0 350 / 61021.4 16.2 -0.0
2020-Aug-02 23:00N 40°42' W 124°06'0 0.0 340 / 71021.5 15.8 -0.0
2020-Aug-02 22:00N 40°42' W 124°06'0 0.0 010 / 71021.4 15.6 -0.0
2020-Aug-02 21:00N 40°42' W 124°06'0 0.0 020 / 91021.4 15.0 -0.0
2020-Aug-02 20:00N 40°42' W 124°06'0 0.0 030 / 61021.3 14.5 -0.0
2020-Aug-02 19:00N 40°42' W 124°06'0 0.0 020 / 61021.1 14.1 -0.0
2020-Aug-02 18:00N 40°42' W 124°06'0 0.0 010 / 71020.8 14.2 -0.0
2020-Aug-02 17:00N 40°42' W 124°06'0 0.0 030 / 71020.9 14.0 -0.0
2020-Aug-02 16:00N 40°42' W 124°06'0 0.0 020 / 61021.1 13.5 -0.0
2020-Aug-02 15:00N 40°42' W 124°06'0 0.0 040 / 81020.8 13.3 -0.0
2020-Aug-02 14:00N 40°42' W 124°06'0 0.0 020 / 41020.7 12.7 -0.0
2020-Aug-02 13:00N 40°42' W 124°06'0 0.0 320 / 41020.0 12.3 -0.0
2020-Aug-02 12:00N 40°42' W 124°06'0 0.0 350 / 31019.5 12.6 -0.0
2020-Aug-02 11:00N 40°42' W 124°06'0 0.0 330 / 51019.4 12.6 -0.0
2020-Aug-02 10:00N 40°42' W 124°06'0 0.0 360 / 61019.3 12.8 -0.0
2020-Aug-02 09:00N 40°42' W 124°06'0 0.0 350 / 81019.8 13.1 -0.0
2020-Aug-02 08:00N 40°42' W 124°06'0 0.0 360 / 71020.1 13.2 -0.0
2020-Aug-02 07:00N 40°42' W 124°06'0 0.0 010 / 91020.4 13.2 -0.0
2020-Aug-02 06:00N 40°42' W 124°06'0 0.0 010 / 61020.5 13.0 -0.0
2020-Aug-02 05:00N 40°42' W 124°06'0 0.0 020 / 51020.4 13.2 -0.0
2020-Aug-02 04:00N 40°42' W 124°06'0 0.0 1020.1 13.3 -0.0
2020-Aug-02 03:00N 40°42' W 124°06'0 0.0 010 / 51020.2 13.5 -0.0
2020-Aug-02 02:00N 40°42' W 124°06'0 0.0 010 / 61020.1 13.7 -0.0
2020-Aug-02 01:00N 40°42' W 124°06'0 0.0 350 / 61020.2 14.3 -0.0
2020-Aug-02 00:00N 40°42' W 124°06'0 0.0 350 / 71020.2 14.7 -0.0
2020-Aug-01 23:00N 40°42' W 124°06'0 0.0 1020.5 14.6 -0.0
2020-Aug-01 22:00N 40°42' W 124°06'0 0.0 010 / 71020.9 14.4 -0.0
2020-Aug-01 21:00N 40°42' W 124°06'0 0.0 340 / 71021.1 14.6 -0.0
2020-Aug-01 20:00N 40°42' W 124°06'0 0.0 350 / 71020.9 15.2 -0.0
2020-Aug-01 19:00N 40°42' W 124°06'0 0.0 020 / 81020.8 14.8 -0.0
2020-Aug-01 18:00N 40°42' W 124°06'0 0.0 030 / 71020.8 14.3 -0.0
2020-Aug-01 17:00N 40°42' W 124°06'0 0.0 030 / 61020.9 13.3 -0.0
2020-Aug-01 16:00N 40°42' W 124°06'0 0.0 030 / 61020.6 13.1 -0.0
2020-Aug-01 15:00N 40°42' W 124°06'0 0.0 020 / 61020.5 12.7 -0.0
2020-Aug-01 14:00N 40°42' W 124°06'0 0.0 340 / 51020.0 12.5 -0.0
2020-Aug-01 13:00N 40°42' W 124°06'0 0.0 310 / 11019.5 12.5 -0.0
2020-Aug-01 12:00N 40°42' W 124°06'0 0.0 350 / 31019.4 12.2 -0.0
2020-Aug-01 11:00N 40°42' W 124°06'0 0.0 350 / 41019.5 12.0 -0.0
2020-Aug-01 10:00N 40°42' W 124°06'0 0.0 010 / 11019.5 12.3 -0.0
2020-Aug-01 09:00N 40°42' W 124°06'0 0.0 220 / 11019.6 12.1 -0.0
2020-Aug-01 08:00N 40°42' W 124°06'0 0.0 320 / 11019.8 12.3 -0.0
2020-Aug-01 07:00N 40°42' W 124°06'0 0.0 020 / 31020.0 12.5 -0.0
2020-Aug-01 06:00N 40°42' W 124°06'0 0.0 010 / 41020.4 12.2 -0.0
2020-Aug-01 05:00N 40°42' W 124°06'0 0.0 020 / 41020.1 12.3 -0.0
2020-Aug-01 04:00N 40°42' W 124°06'0 0.0 020 / 51019.8 12.3 -0.0
2020-Aug-01 03:00N 40°42' W 124°06'0 0.0 020 / 61019.6 12.8 -0.0
2020-Aug-01 02:00N 40°42' W 124°06'0 0.0 020 / 71019.6 13.2 -0.0
2020-Aug-01 01:00N 40°42' W 124°06'0 0.0 360 / 71019.9 13.7 -0.0
2020-Aug-01 00:00N 40°42' W 124°06'0 0.0 010 / 71020.3 13.9 -0.0
2020-Jul-31 23:00N 40°42' W 124°06'0 0.0 350 / 81020.8 14.1 -0.0
2020-Jul-31 22:00N 40°42' W 124°06'0 0.0 340 / 81020.6 14.3 -0.0
2020-Jul-31 21:00N 40°42' W 124°06'0 0.0 340 / 71020.2 14.3 -0.0
2020-Jul-31 20:00N 40°42' W 124°06'0 0.0 030 / 41019.8 14.3 -0.0
2020-Jul-31 19:00N 40°42' W 124°06'0 0.0 340 / 61019.9 13.0 -0.0
2020-Jul-31 18:00N 40°42' W 124°06'0 0.0 360 / 51019.7 12.8 -0.0
2020-Jul-31 17:00N 40°42' W 124°06'0 0.0 360 / 61019.2 12.3 -0.0
2020-Jul-31 16:00N 40°42' W 124°06'0 0.0 060 / 21019.0 12.2 -0.0
2020-Jul-31 15:00N 40°42' W 124°06'0 0.0 340 / 31018.6 11.4 -0.0
2020-Jul-31 14:00N 40°42' W 124°06'0 0.0 340 / 31018.3 11.0 -0.0
2020-Jul-31 13:00N 40°42' W 124°06'0 0.0 300 / 21017.9 10.9 -0.0
2020-Jul-31 12:00N 40°42' W 124°06'0 0.0 250 / 31017.3 11.0 -0.0
2020-Jul-31 11:00N 40°42' W 124°06'0 0.0 260 / 61016.6 11.1 -0.0
2020-Jul-31 10:00N 40°42' W 124°06'0 0.0 260 / 41016.5 11.4 -0.0
2020-Jul-31 09:00N 40°42' W 124°06'0 0.0 290 / 31016.6 11.6 -0.0
2020-Jul-31 08:00N 40°42' W 124°06'0 0.0 260 / 21016.9 11.9 -0.0
2020-Jul-31 07:00N 40°42' W 124°06'0 0.0 290 / 21017.0 11.9 -0.0
2020-Jul-31 06:00N 40°42' W 124°06'0 0.0 280 / 41017.4 11.8 -0.0
2020-Jul-31 05:00N 40°42' W 124°06'0 0.0 300 / 51017.4 12.1 -0.0
2020-Jul-31 04:00N 40°42' W 124°06'0 0.0 320 / 51017.3 12.5 -0.0
2020-Jul-31 03:00N 40°42' W 124°06'0 0.0 330 / 41017.5 13.6 -0.0
2020-Jul-31 02:00N 40°42' W 124°06'0 0.0 340 / 41017.7 14.5 -0.0
2020-Jul-31 01:00N 40°42' W 124°06'0 0.0 340 / 41017.8 14.7 -0.0
2020-Jul-31 00:00N 40°42' W 124°06'0 0.0 310 / 41018.0 14.8 -0.0
2020-Jul-30 23:00N 40°42' W 124°06'0 0.0 310 / 51018.0 14.6 -0.0
2020-Jul-30 22:00N 40°42' W 124°06'0 0.0 320 / 51018.0 14.5 -0.0
2020-Jul-30 21:00N 40°42' W 124°06'0 0.0 300 / 51018.1 14.3 -0.0
2020-Jul-30 20:00N 40°42' W 124°06'0 0.0 290 / 31017.8 14.2 -0.0
2020-Jul-30 19:00N 40°42' W 124°06'0 0.0 260 / 51017.5 12.3 -0.0
2020-Jul-30 18:00N 40°42' W 124°06'0 0.0 200 / 61017.1 11.4 -0.0
2020-Jul-30 17:00N 40°42' W 124°06'0 0.0 190 / 51016.9 11.0 -0.0
2020-Jul-30 16:00N 40°42' W 124°06'0 0.0 190 / 21016.6 10.7 -0.0
2020-Jul-30 15:00N 40°42' W 124°06'0 0.0 230 / 21016.0 10.5 -0.0
2020-Jul-30 14:00N 40°42' W 124°06'0 0.0 250 / 41015.5 10.6 -0.0
2020-Jul-30 13:00N 40°42' W 124°06'0 0.0 270 / 31015.4 10.6 -0.0
2020-Jul-30 12:00N 40°42' W 124°06'0 0.0 240 / 41015.4 10.9 -0.0
2020-Jul-30 11:00N 40°42' W 124°06'0 0.0 270 / 31015.3 10.8 -0.0
2020-Jul-30 10:00N 40°42' W 124°06'0 0.0 270 / 31015.0 11.1 -0.0
2020-Jul-30 09:00N 40°42' W 124°06'0 0.0 290 / 21015.0 11.2 -0.0
2020-Jul-30 08:00N 40°42' W 124°06'0 0.0 320 / 21015.2 11.2 -0.0
2020-Jul-30 07:00N 40°42' W 124°06'0 0.0 330 / 41015.4 11.1 -0.0
2020-Jul-30 06:00N 40°42' W 124°06'0 0.0 330 / 41015.5 11.4 -0.0
2020-Jul-30 05:00N 40°42' W 124°06'0 0.0 350 / 31015.6 11.6 -0.0
2020-Jul-30 04:00N 40°42' W 124°06'0 0.0 330 / 31015.2 11.8 -0.0
2020-Jul-30 03:00N 40°42' W 124°06'0 0.0 330 / 31014.8 12.1 -0.0
2020-Jul-30 02:00N 40°42' W 124°06'0 0.0 320 / 31014.7 12.1 -0.0
2020-Jul-30 01:00N 40°42' W 124°06'0 0.0 300 / 41014.8 12.4 -0.0
2020-Jul-30 00:00N 40°42' W 124°06'0 0.0 290 / 41014.9 12.8 -0.0
2020-Jul-29 23:00N 40°42' W 124°06'0 0.0 290 / 51015.1 13.2 -0.0
2020-Jul-29 22:00N 40°42' W 124°06'0 0.0 280 / 51015.2 12.7 -0.0
2020-Jul-29 21:00N 40°42' W 124°06'0 0.0 260 / 61015.1 12.9 -0.0
2020-Jul-29 20:00N 40°42' W 124°06'0 0.0 270 / 51015.0 12.7 -0.0
2020-Jul-29 19:00N 40°42' W 124°06'0 0.0 260 / 51014.6 12.4 -0.0
2020-Jul-29 18:00N 40°42' W 124°06'0 0.0 230 / 51014.2 11.7 -0.0
2020-Jul-29 17:00N 40°42' W 124°06'0 0.0 200 / 51013.6 11.5 -0.0
2020-Jul-29 16:00N 40°42' W 124°06'0 0.0 190 / 41013.3 11.1 -0.0
2020-Jul-29 15:00N 40°42' W 124°06'0 0.0 180 / 51012.8 10.7 -0.0
2020-Jul-29 14:00N 40°42' W 124°06'0 0.0 160 / 31012.3 10.9 -0.0
2020-Jul-29 13:00N 40°42' W 124°06'0 0.0 170 / 31012.2 10.9 -0.0
2020-Jul-29 12:00N 40°42' W 124°06'0 0.0 180 / 31012.3 11.0 -0.0
2020-Jul-29 11:00N 40°42' W 124°06'0 0.0 230 / 21012.5 10.7 -0.0
2020-Jul-29 10:00N 40°42' W 124°06'0 0.0 240 / 31012.7 10.7 -0.0
2020-Jul-29 09:00N 40°42' W 124°06'0 0.0 260 / 41012.9 10.9 -0.0
2020-Jul-29 08:00N 40°42' W 124°06'0 0.0 250 / 31013.1 11.1 -0.0
2020-Jul-29 07:00N 40°42' W 124°06'0 0.0 250 / 21013.3 11.2 -0.0
2020-Jul-29 06:00N 40°42' W 124°06'0 0.0 270 / 21013.5 11.3 -0.0
2020-Jul-29 05:00N 40°42' W 124°06'0 0.0 300 / 31013.3 11.4 -0.0
2020-Jul-29 04:00N 40°42' W 124°06'0 0.0 010 / 21013.0 11.9 -0.0
2020-Jul-29 03:00N 40°42' W 124°06'0 0.0 340 / 31012.9 11.7 -0.0
2020-Jul-29 02:00N 40°42' W 124°06'0 0.0 290 / 31013.0 11.8 -0.0
2020-Jul-29 01:00N 40°42' W 124°06'0 0.0 270 / 61013.1 12.1 -0.0
2020-Jul-29 00:00N 40°42' W 124°06'0 0.0 260 / 71013.3 12.5 -0.0
2020-Jul-28 23:00N 40°42' W 124°06'0 0.0 270 / 51013.7 13.2 -0.0
2020-Jul-28 22:00N 40°42' W 124°06'0 0.0 280 / 61014.0 13.0 -0.0
2020-Jul-28 21:00N 40°42' W 124°06'0 0.0 270 / 61014.3 12.9 -0.0
2020-Jul-28 20:00N 40°42' W 124°06'0 0.0 290 / 51014.7 12.5 -0.0
2020-Jul-28 19:00N 40°42' W 124°06'0 0.0 280 / 51014.6 12.1 -0.0
2020-Jul-28 18:00N 40°42' W 124°06'0 0.0 290 / 51014.3 11.6 -0.0
2020-Jul-28 17:00N 40°42' W 124°06'0 0.0 300 / 11014.2 11.7 -0.0
2020-Jul-28 16:00N 40°42' W 124°06'0 0.0 130 / 11014.2 11.2 -0.0
2020-Jul-28 15:00N 40°42' W 124°06'0 0.0 200 / 21014.2 10.9 -0.0
2020-Jul-28 14:00N 40°42' W 124°06'0 0.0 220 / 31014.2 10.6 -0.0
2020-Jul-28 13:00N 40°42' W 124°06'0 0.0 230 / 41014.1 10.6 -0.0
2020-Jul-28 12:00N 40°42' W 124°06'0 0.0 240 / 31013.7 10.8 -0.0
2020-Jul-28 11:00N 40°42' W 124°06'0 0.0 300 / 31013.7 10.8 -0.0
2020-Jul-28 10:00N 40°42' W 124°06'0 0.0 320 / 31013.7 11.0 -0.0
2020-Jul-28 09:00N 40°42' W 124°06'0 0.0 350 / 21013.9 11.4 -0.0
2020-Jul-28 08:00N 40°42' W 124°06'0 0.0 350 / 31014.1 11.4 -0.0
2020-Jul-28 07:00N 40°42' W 124°06'0 0.0 340 / 21014.2 11.5 -0.0
2020-Jul-28 06:00N 40°42' W 124°06'0 0.0 350 / 21014.6 11.3 -0.0
2020-Jul-28 05:00N 40°42' W 124°06'0 0.0 330 / 11014.5 11.4 -0.0
2020-Jul-28 04:00N 40°42' W 124°06'0 0.0 220 / 11014.3 11.6 -0.0
2020-Jul-28 03:00N 40°42' W 124°06'0 0.0 290 / 21014.3 11.7 -0.0
2020-Jul-28 02:00N 40°42' W 124°06'0 0.0 290 / 31014.2 11.6 -0.0
2020-Jul-28 01:00N 40°42' W 124°06'0 0.0 310 / 41014.4 11.7 -0.0
2020-Jul-28 00:00N 40°42' W 124°06'0 0.0 290 / 41014.5 12.1 -0.0
2020-Jul-27 23:00N 40°42' W 124°06'0 0.0 290 / 51014.6 12.7 -0.0
2020-Jul-27 22:00N 40°42' W 124°06'0 0.0 300 / 41014.8 12.3 -0.0
2020-Jul-27 21:00N 40°42' W 124°06'0 0.0 310 / 51015.1 11.9 -0.0
2020-Jul-27 20:00N 40°42' W 124°06'0 0.0 310 / 41015.2 11.9 -0.0
2020-Jul-27 19:00N 40°42' W 124°06'0 0.0 360 / 41015.2 11.5 -0.0
2020-Jul-27 18:00N 40°42' W 124°06'0 0.0 340 / 31015.2 10.8 -0.0
2020-Jul-27 17:00N 40°42' W 124°06'0 0.0 310 / 41015.0 10.6 -0.0
2020-Jul-27 16:00N 40°42' W 124°06'0 0.0 320 / 21014.9 10.8 -0.0
2020-Jul-27 15:00N 40°42' W 124°06'0 0.0 330 / 11014.7 11.1 -0.0
2020-Jul-27 14:00N 40°42' W 124°06'0 0.0 300 / 11014.7 10.9 -0.0
2020-Jul-27 13:00N 40°42' W 124°06'0 0.0 260 / 21014.4 10.8 -0.0
2020-Jul-27 12:00N 40°42' W 124°06'0 0.0 250 / 21014.2 10.9 -0.0
2020-Jul-27 11:00N 40°42' W 124°06'0 0.0 250 / 21014.5 11.0 -0.0
2020-Jul-27 10:00N 40°42' W 124°06'0 0.0 330 / 21014.6 11.0 -0.0
2020-Jul-27 09:00N 40°42' W 124°06'0 0.0 310 / 31014.4 11.2 -0.0
2020-Jul-27 08:00N 40°42' W 124°06'0 0.0 320 / 21014.5 11.3 -0.0
2020-Jul-27 07:00N 40°42' W 124°06'0 0.0 300 / 31014.7 11.3 -0.0
2020-Jul-27 06:00N 40°42' W 124°06'0 0.0 250 / 31014.6 11.6 -0.0
2020-Jul-27 05:00N 40°42' W 124°06'0 0.0 200 / 21014.9 11.7 -0.0
2020-Jul-27 04:00N 40°42' W 124°06'0 0.0 240 / 31014.7 11.8 -0.0
2020-Jul-27 03:00N 40°42' W 124°06'0 0.0 230 / 51014.4 11.9 -0.0
2020-Jul-27 02:00N 40°42' W 124°06'0 0.0 230 / 51014.4 12.1 -0.0
2020-Jul-27 01:00N 40°42' W 124°06'0 0.0 240 / 61014.6 12.1 -0.0
2020-Jul-27 00:00N 40°42' W 124°06'0 0.0 240 / 71014.8 12.8 -0.0
2020-Jul-26 23:00N 40°42' W 124°06'0 0.0 260 / 71015.1 12.4 -0.0
2020-Jul-26 22:00N 40°42' W 124°06'0 0.0 250 / 61015.3 12.3 -0.0
2020-Jul-26 21:00N 40°42' W 124°06'0 0.0 260 / 71015.4 11.7 -0.0
2020-Jul-26 20:00N 40°42' W 124°06'0 0.0 260 / 71015.3 11.4 -0.0
2020-Jul-26 19:00N 40°42' W 124°06'0 0.0 260 / 61015.1 11.7 -0.0
2020-Jul-26 18:00N 40°42' W 124°06'0 0.0 280 / 31014.8 11.7 -0.0
2020-Jul-26 17:00N 40°42' W 124°06'0 0.0 270 / 21014.4 11.7 -0.0
2020-Jul-26 16:00N 40°42' W 124°06'0 0.0 240 / 11014.0 11.2 -0.0
2020-Jul-26 15:00N 40°42' W 124°06'0 0.0 230 / 21013.9 10.9 -0.0
2020-Jul-26 14:00N 40°42' W 124°06'0 0.0 210 / 41013.6 11.0 -0.0
2020-Jul-26 13:00N 40°42' W 124°06'0 0.0 190 / 61013.3 11.1 -0.0
2020-Jul-26 12:00N 40°42' W 124°06'0 0.0 210 / 71013.1 11.3 -0.0
2020-Jul-26 11:00N 40°42' W 124°06'0 0.0 210 / 101013.0 11.5 -0.0
2020-Jul-26 10:00N 40°42' W 124°06'0 0.0 190 / 101012.9 11.7 -0.0
2020-Jul-26 09:00N 40°42' W 124°06'0 0.0 190 / 81013.1 11.5 -0.0
2020-Jul-26 08:00N 40°42' W 124°06'0 0.0 180 / 71013.3 11.7 -0.0
2020-Jul-26 07:00N 40°42' W 124°06'0 0.0 180 / 61013.7 11.9 -0.0
2020-Jul-26 06:00N 40°42' W 124°06'0 0.0 200 / 61013.9 12.1 -0.0
2020-Jul-26 05:00N 40°42' W 124°06'0 0.0 230 / 41013.9 12.1 -0.0
2020-Jul-26 04:00N 40°42' W 124°06'   240 / 31013.9 12.6 -0.0

Dump ship's entire track history